createdAt,value
2024-05-09T00:01:07.604Z,77.57
2024-05-09T00:03:47.221Z,77.84
2024-05-09T00:06:19.107Z,75.93
2024-05-09T00:08:47.585Z,76.13
2024-05-09T00:11:15.174Z,76.09
2024-05-09T00:13:42.695Z,76.63
2024-05-09T00:16:13.353Z,77.33
2024-05-09T00:18:40.837Z,76.54
2024-05-09T00:21:14.951Z,76.85
2024-05-09T00:23:42.350Z,77.86
2024-05-09T00:26:24.936Z,76.46
2024-05-09T00:28:52.238Z,78.11
2024-05-09T00:31:19.521Z,78.32
2024-05-09T00:33:46.547Z,77.34
2024-05-09T00:36:13.535Z,77.31
2024-05-09T00:38:40.483Z,78.14
2024-05-09T00:41:07.533Z,78.49
2024-05-09T00:43:34.424Z,78.36
2024-05-09T00:46:01.632Z,78.29
2024-05-09T00:48:37.732Z,77.52
2024-05-09T00:51:06.745Z,77.87
2024-05-09T00:53:54.781Z,78.94
2024-05-09T00:56:26.971Z,79.44
2024-05-09T00:58:57.789Z,79.93
2024-05-09T01:01:36.675Z,79.39
2024-05-09T01:04:05.861Z,79.90
2024-05-09T01:06:37.039Z,80.74
2024-05-09T01:09:15.911Z,81.15
2024-05-09T01:11:44.879Z,81.55
2024-05-09T01:14:14.566Z,80.45
2024-05-09T01:16:45.531Z,81.24
2024-05-09T01:19:26.566Z,81.64
2024-05-09T01:21:53.653Z,82.14
2024-05-09T01:24:23.551Z,82.77
2024-05-09T01:26:53.686Z,83.50
2024-05-09T01:29:22.259Z,84.19
2024-05-09T01:31:53.207Z,83.99
2024-05-09T01:34:20.704Z,84.25
2024-05-09T01:36:49.436Z,84.75
2024-05-09T01:39:46.968Z,84.79
2024-05-09T01:42:21.875Z,85.12
2024-05-09T01:44:54.168Z,84.55
2024-05-09T01:47:24.555Z,84.22
2024-05-09T01:50:00.017Z,84.78
2024-05-09T01:52:34.520Z,85.02
2024-05-09T01:55:06.994Z,85.17
2024-05-09T01:57:35.390Z,84.89
2024-05-09T02:00:10.302Z,84.92
2024-05-09T02:02:42.734Z,84.92
2024-05-09T02:05:15.999Z,84.45
2024-05-09T02:07:48.300Z,84.57
2024-05-09T02:10:23.470Z,84.37
2024-05-09T02:13:06.327Z,84.34
2024-05-09T02:15:33.378Z,84.49
2024-05-09T02:18:03.250Z,84.65
2024-05-09T02:20:35.826Z,84.00
2024-05-09T02:23:08.031Z,84.11
2024-05-09T02:25:46.492Z,84.16
2024-05-09T02:28:14.278Z,83.92
2024-05-09T02:30:43.518Z,83.57
2024-05-09T02:33:13.991Z,84.44
2024-05-09T02:35:44.103Z,84.10
2024-05-09T02:38:12.305Z,84.18
2024-05-09T02:40:48.617Z,84.15
2024-05-09T02:43:16.050Z,84.18
2024-05-09T02:45:50.413Z,83.81
2024-05-09T02:48:18.996Z,84.13
2024-05-09T02:50:48.317Z,84.10
2024-05-09T02:53:15.421Z,84.36
2024-05-09T02:55:48.872Z,84.66
2024-05-09T02:58:19.310Z,84.87
2024-05-09T03:00:52.445Z,85.47
2024-05-09T03:03:31.051Z,85.69
2024-05-09T03:06:01.455Z,85.37
2024-05-09T03:08:33.885Z,85.03
2024-05-09T03:11:06.102Z,84.86
2024-05-09T03:13:41.591Z,84.50
2024-05-09T03:16:11.708Z,84.40
2024-05-09T03:18:39.178Z,84.34
2024-05-09T03:21:06.765Z,84.23
2024-05-09T03:23:40.653Z,82.80
2024-05-09T03:26:15.071Z,82.83
2024-05-09T03:28:44.751Z,82.69
2024-05-09T03:31:21.313Z,84.15
2024-05-09T03:33:58.965Z,82.05
2024-05-09T03:36:31.379Z,78.96
2024-05-09T03:39:13.152Z,76.99
2024-05-09T03:41:46.609Z,76.63
2024-05-09T03:44:13.981Z,75.67
2024-05-09T03:46:53.131Z,77.22
2024-05-09T03:49:27.696Z,77.15
2024-05-09T03:51:55.135Z,78.79
2024-05-09T03:54:48.092Z,78.00
2024-05-09T03:57:15.877Z,77.57
2024-05-09T03:59:43.113Z,78.44
2024-05-09T04:02:10.508Z,78.62
2024-05-09T04:04:43.337Z,78.46
2024-05-09T04:07:16.108Z,76.93
2024-05-09T04:09:47.279Z,75.07
2024-05-09T04:12:14.789Z,76.24
2024-05-09T04:14:44.629Z,74.90
2024-05-09T04:17:26.327Z,74.26
2024-05-09T04:19:53.953Z,74.71
2024-05-09T04:22:24.709Z,75.79
2024-05-09T04:25:00.899Z,75.13
2024-05-09T04:27:31.241Z,75.68
2024-05-09T04:32:50.504Z,76.82
2024-05-09T04:35:23.115Z,76.77
2024-05-09T04:37:50.148Z,75.74
2024-05-09T04:40:28.346Z,75.99
2024-05-09T04:43:00.418Z,78.81
2024-05-09T04:45:27.605Z,79.33
2024-05-09T04:48:02.854Z,79.72
2024-05-09T04:50:38.304Z,79.04
2024-05-09T04:53:11.529Z,79.07
2024-05-09T04:55:39.422Z,79.14
2024-05-09T04:58:09.846Z,79.40
2024-05-09T05:00:42.403Z,79.76
2024-05-09T05:03:34.934Z,79.18
2024-05-09T05:06:02.057Z,79.52
2024-05-09T05:08:29.152Z,80.31
2024-05-09T05:11:07.083Z,79.80
2024-05-09T05:13:38.650Z,80.35
2024-05-09T05:16:09.906Z,78.46
2024-05-09T05:18:42.471Z,79.39
2024-05-09T05:21:09.525Z,78.54
2024-05-09T05:23:42.947Z,78.63
2024-05-09T05:26:14.164Z,77.96
2024-05-09T05:29:00.048Z,77.56
2024-05-09T05:31:33.315Z,77.37
2024-05-09T05:34:03.283Z,77.01
2024-05-09T05:36:37.097Z,77.59
2024-05-09T05:39:10.284Z,77.18
2024-05-09T05:41:37.586Z,77.06
2024-05-09T05:44:14.891Z,76.56
2024-05-09T05:46:45.133Z,76.74
2024-05-09T05:49:12.617Z,77.09
2024-05-09T05:51:55.225Z,75.36
2024-05-09T05:54:26.867Z,75.04
2024-05-09T05:56:59.871Z,74.25
2024-05-09T05:59:27.327Z,73.28
2024-05-09T06:02:06.619Z,72.68
2024-05-09T06:04:34.043Z,74.52
2024-05-09T06:07:01.307Z,73.58
2024-05-09T06:09:31.571Z,71.08
2024-05-09T06:12:05.247Z,68.57
2024-05-09T06:14:32.675Z,65.54
2024-05-09T06:17:01.808Z,63.17
2024-05-09T06:19:33.069Z,57.73
2024-05-09T06:22:03.312Z,52.32
2024-05-09T06:24:38.935Z,52.98
2024-05-09T06:27:13.689Z,53.12
2024-05-09T06:29:41.043Z,52.63
2024-05-09T06:32:08.445Z,50.60
2024-05-09T06:34:38.365Z,47.41
2024-05-09T06:37:11.150Z,48.82
2024-05-09T06:39:38.441Z,49.91
2024-05-09T06:42:05.716Z,49.03
2024-05-09T06:44:33.061Z,48.54
2024-05-09T06:47:00.528Z,50.33
2024-05-09T06:49:29.970Z,49.21
2024-05-09T06:52:00.000Z,53.21
2024-05-09T06:54:29.698Z,45.06
2024-05-09T06:56:59.504Z,39.61
2024-05-09T07:02:35.199Z,37.57
2024-05-09T07:05:08.061Z,40.16
2024-05-09T07:07:35.422Z,43.34
2024-05-09T07:10:03.862Z,45.40
2024-05-09T07:12:32.393Z,45.17
2024-05-09T07:17:47.782Z,40.87
2024-05-09T07:20:23.491Z,37.24
2024-05-09T07:23:02.410Z,39.46
2024-05-09T07:25:30.314Z,42.35
2024-05-09T07:28:00.040Z,40.25
2024-05-09T07:30:36.144Z,44.36
2024-05-09T07:33:04.013Z,40.73
2024-05-09T07:35:43.336Z,44.19
2024-05-09T07:38:18.157Z,42.74
2024-05-09T07:40:45.219Z,42.03
2024-05-09T07:43:12.486Z,44.72
2024-05-09T07:45:50.802Z,46.90
2024-05-09T07:50:00.440Z,41.80
2024-05-09T07:53:50.777Z,43.92
2024-05-09T07:56:22.577Z,41.13
2024-05-09T07:58:53.203Z,39.09
2024-05-09T08:01:30.508Z,38.10
2024-05-09T08:04:04.168Z,36.06
2024-05-09T08:06:44.315Z,34.61
2024-05-09T08:09:16.741Z,36.47
2024-05-09T08:11:46.433Z,40.74
2024-05-09T08:14:16.302Z,39.42
2024-05-09T08:16:43.148Z,39.15
2024-05-09T08:19:15.275Z,37.77
2024-05-09T08:21:43.379Z,39.83
2024-05-09T08:24:10.279Z,42.59
2024-05-09T08:26:44.181Z,42.90
2024-05-09T08:29:11.047Z,42.51
2024-05-09T08:31:43.970Z,40.55
2024-05-09T08:34:23.392Z,39.17
2024-05-09T08:36:54.221Z,34.93
2024-05-09T08:39:27.279Z,34.83
2024-05-09T08:41:57.732Z,34.63
2024-05-09T08:44:25.062Z,35.80
2024-05-09T08:46:52.388Z,40.19
2024-05-09T08:49:21.413Z,42.28
2024-05-09T08:51:59.585Z,46.05
2024-05-09T08:57:18.455Z,43.83
2024-05-09T08:59:48.945Z,40.61
2024-05-09T09:02:16.599Z,38.71
2024-05-09T09:04:59.271Z,39.67
2024-05-09T09:07:36.338Z,37.09
2024-05-09T09:10:12.897Z,38.93
2024-05-09T09:12:42.216Z,40.59
2024-05-09T09:15:11.553Z,40.10
2024-05-09T09:17:50.455Z,40.90
2024-05-09T09:20:23.240Z,41.19
2024-05-09T09:25:45.216Z,42.76
2024-05-09T09:28:18.459Z,43.31
2024-05-09T09:30:48.439Z,43.66
2024-05-09T09:33:20.469Z,44.11
2024-05-09T09:35:47.406Z,44.59
2024-05-09T09:38:27.571Z,44.18
2024-05-09T09:40:56.330Z,45.66
2024-05-09T09:43:36.370Z,42.77
2024-05-09T09:46:11.577Z,44.13
2024-05-09T09:48:40.653Z,44.71
2024-05-09T09:51:17.402Z,43.92
2024-05-09T09:53:47.982Z,43.38
2024-05-09T09:56:17.235Z,44.00
2024-05-09T09:58:46.588Z,44.32
2024-05-09T10:01:35.976Z,44.98
2024-05-09T10:04:10.637Z,43.09
2024-05-09T10:06:50.451Z,43.27
2024-05-09T10:09:33.554Z,44.11
2024-05-09T10:12:20.249Z,44.85
2024-05-09T10:15:06.110Z,43.18
2024-05-09T10:17:36.499Z,44.80
2024-05-09T10:20:21.343Z,46.95
2024-05-09T10:23:01.123Z,45.44
2024-05-09T10:25:43.750Z,45.55
2024-05-09T10:28:13.411Z,44.92
2024-05-09T10:31:14.176Z,46.04
2024-05-09T10:33:55.664Z,48.37
2024-05-09T10:36:27.719Z,46.81
2024-05-09T10:38:55.343Z,46.87
2024-05-09T10:41:32.339Z,46.08
2024-05-09T10:44:00.496Z,49.68
2024-05-09T10:46:27.403Z,49.51
2024-05-09T10:49:08.011Z,47.87
2024-05-09T10:51:36.026Z,47.99
2024-05-09T10:54:09.158Z,45.11
2024-05-09T10:56:40.200Z,45.12
2024-05-09T10:59:07.007Z,44.63
2024-05-09T11:01:34.308Z,45.44
2024-05-09T11:04:08.361Z,46.01
2024-05-09T11:06:55.303Z,48.07
2024-05-09T11:09:25.619Z,47.22
2024-05-09T11:11:55.589Z,46.87
2024-05-09T11:14:25.380Z,46.06
2024-05-09T11:17:05.603Z,47.41
2024-05-09T11:19:41.467Z,47.85
2024-05-09T11:22:11.329Z,47.34
2024-05-09T11:24:41.331Z,47.70
2024-05-09T11:27:32.831Z,47.79
2024-05-09T11:30:04.251Z,46.09
2024-05-09T11:32:31.801Z,47.29
2024-05-09T11:35:10.121Z,48.27
2024-05-09T11:37:40.370Z,48.22
2024-05-09T11:40:16.991Z,48.93
2024-05-09T11:42:53.229Z,48.70
2024-05-09T11:45:20.831Z,49.37
2024-05-09T11:47:57.596Z,49.46
2024-05-09T11:50:36.357Z,50.64
2024-05-09T11:53:09.265Z,48.88
2024-05-09T11:55:38.777Z,47.47
2024-05-09T11:58:05.866Z,47.83
2024-05-09T12:00:39.901Z,48.23
2024-05-09T12:03:11.617Z,48.86
2024-05-09T12:05:40.686Z,47.37
2024-05-09T12:08:07.853Z,49.37
2024-05-09T12:10:55.196Z,49.03
2024-05-09T12:13:24.633Z,50.03
2024-05-09T12:16:09.667Z,49.96
2024-05-09T12:18:39.256Z,50.62
2024-05-09T12:21:07.848Z,50.54
2024-05-09T12:23:40.410Z,49.57
2024-05-09T12:26:09.907Z,48.48
2024-05-09T12:28:43.143Z,48.21
2024-05-09T12:31:11.767Z,47.09
2024-05-09T12:33:44.211Z,49.44
2024-05-09T12:36:15.769Z,48.35
2024-05-09T12:39:06.376Z,48.98
2024-05-09T12:41:33.265Z,48.70
2024-05-09T12:44:03.113Z,47.89
2024-05-09T12:46:35.225Z,48.27
2024-05-09T12:49:05.171Z,49.10
2024-05-09T12:51:36.034Z,48.04
2024-05-09T12:54:04.680Z,49.21
2024-05-09T12:56:32.105Z,49.02
2024-05-09T12:59:04.740Z,49.55
2024-05-09T13:01:36.318Z,48.44
2024-05-09T13:04:03.946Z,49.13
2024-05-09T13:06:31.534Z,49.50
2024-05-09T13:09:02.777Z,49.17
2024-05-09T13:11:32.357Z,47.98
2024-05-09T13:14:02.433Z,48.70
2024-05-09T13:16:32.724Z,48.49
2024-05-09T13:18:59.805Z,48.58
2024-05-09T13:21:31.463Z,49.17
2024-05-09T13:24:01.204Z,48.47
2024-05-09T13:26:30.368Z,48.36
2024-05-09T13:28:59.652Z,49.20
2024-05-09T13:31:26.594Z,49.17
2024-05-09T13:33:59.275Z,49.63
2024-05-09T13:36:26.325Z,48.93
2024-05-09T13:38:55.278Z,49.33
2024-05-09T13:41:24.664Z,48.34
2024-05-09T13:43:51.498Z,48.20
2024-05-09T13:46:22.399Z,48.43
2024-05-09T13:48:52.009Z,48.53
2024-05-09T13:51:18.991Z,48.09
2024-05-09T13:53:53.435Z,47.37
2024-05-09T13:56:22.260Z,46.75
2024-05-09T13:59:03.301Z,48.29
2024-05-09T14:01:33.346Z,48.79
2024-05-09T14:04:03.064Z,49.08
2024-05-09T14:06:30.217Z,49.40
2024-05-09T14:08:59.819Z,49.71
2024-05-09T14:11:29.716Z,49.66
2024-05-09T14:14:05.694Z,48.36
2024-05-09T14:16:42.009Z,49.74
2024-05-09T14:19:14.898Z,48.70
2024-05-09T14:21:44.146Z,48.61
2024-05-09T14:24:11.454Z,48.88
2024-05-09T14:26:41.208Z,49.29
2024-05-09T14:29:14.926Z,48.54
2024-05-09T14:31:42.209Z,49.05
2024-05-09T14:34:09.921Z,49.32
2024-05-09T14:36:37.430Z,48.69
2024-05-09T14:39:10.082Z,48.16
2024-05-09T14:41:39.981Z,48.61
2024-05-09T14:44:09.461Z,49.63
2024-05-09T14:46:45.952Z,49.42
2024-05-09T14:49:28.408Z,49.50
2024-05-09T14:52:05.949Z,49.35
2024-05-09T14:54:33.320Z,49.81
2024-05-09T14:57:07.313Z,49.11
2024-05-09T14:59:34.506Z,49.70
2024-05-09T15:02:04.450Z,50.58
2024-05-09T15:04:38.297Z,49.32
2024-05-09T15:07:15.148Z,49.85
2024-05-09T15:10:26.534Z,49.73
2024-05-09T15:13:08.110Z,47.66
2024-05-09T15:15:40.486Z,50.16
2024-05-09T15:18:08.416Z,49.26
2024-05-09T15:20:37.399Z,49.66
2024-05-09T15:23:08.316Z,48.90
2024-05-09T15:25:36.898Z,48.65
2024-05-09T15:28:15.656Z,48.16
2024-05-09T15:30:47.791Z,49.20
2024-05-09T15:33:18.208Z,49.37
2024-05-09T15:36:00.862Z,49.91
2024-05-09T15:38:29.799Z,50.10
2024-05-09T15:41:05.176Z,50.58
2024-05-09T15:43:34.839Z,50.38
2024-05-09T15:46:17.410Z,51.58
2024-05-09T15:48:47.240Z,51.15
2024-05-09T15:51:17.076Z,50.97
2024-05-09T15:53:47.520Z,50.50
2024-05-09T15:56:17.570Z,50.75
2024-05-09T15:58:50.919Z,49.54
2024-05-09T16:01:18.378Z,50.39
2024-05-09T16:03:45.662Z,50.65
2024-05-09T16:06:25.716Z,51.40
2024-05-09T16:11:41.386Z,50.18
2024-05-09T16:14:15.891Z,50.17
2024-05-09T16:16:43.460Z,49.72
2024-05-09T16:19:10.947Z,49.79
2024-05-09T16:21:38.204Z,50.63
2024-05-09T16:24:05.376Z,50.01
2024-05-09T16:26:52.827Z,50.16
2024-05-09T16:29:38.971Z,50.31
2024-05-09T16:32:08.976Z,50.78
2024-05-09T16:34:41.705Z,51.07
2024-05-09T16:37:20.677Z,51.37
2024-05-09T16:39:47.662Z,51.02
2024-05-09T17:18:30.908Z,51.10
2024-05-09T17:21:07.690Z,51.14
2024-05-09T17:23:53.268Z,51.18
2024-05-09T17:26:21.976Z,50.85
2024-05-09T17:28:50.900Z,50.83
2024-05-09T17:31:18.432Z,51.46
2024-05-09T17:33:57.690Z,51.30
2024-05-09T17:36:27.589Z,51.71
2024-05-09T17:39:00.261Z,51.59
2024-05-09T17:41:34.774Z,51.78
2024-05-09T17:44:06.460Z,51.76
2024-05-09T17:49:33.193Z,52.61
2024-05-09T17:52:05.210Z,52.72
2024-05-09T17:54:32.136Z,53.36
2024-05-09T17:57:23.833Z,52.92
2024-05-09T17:59:53.429Z,53.04
2024-05-09T18:02:22.811Z,52.65
2024-05-09T18:04:59.130Z,52.12
2024-05-09T18:10:25.457Z,51.90
2024-05-09T18:16:48.121Z,53.19
2024-05-09T18:19:35.373Z,53.72
2024-05-09T18:22:02.443Z,54.05
2024-05-09T18:24:47.289Z,54.27
2024-05-09T18:27:22.130Z,53.39
2024-05-09T18:29:53.611Z,53.98
2024-05-09T18:32:21.327Z,54.41
2024-05-09T18:34:51.253Z,54.03
2024-05-09T18:37:35.400Z,53.87
2024-05-09T18:40:12.176Z,54.39
2024-05-09T18:43:35.111Z,55.46
2024-05-09T18:46:11.809Z,55.45
2024-05-09T18:48:41.581Z,56.08
2024-05-09T18:51:10.858Z,56.07
2024-05-09T18:53:38.082Z,56.64
2024-05-09T18:56:06.176Z,56.47
2024-05-09T18:59:26.771Z,56.47
2024-05-09T19:11:36.645Z,57.56
2024-05-09T19:21:54.054Z,57.60
2024-05-09T19:24:21.456Z,58.42
2024-05-09T19:26:57.402Z,58.16
2024-05-09T19:29:24.303Z,58.56
2024-05-09T19:31:51.361Z,58.20
2024-05-09T19:34:21.046Z,59.03
2024-05-09T19:36:48.387Z,59.22
2024-05-09T19:39:23.767Z,59.18
2024-05-09T19:41:54.219Z,59.54
2024-05-09T19:44:21.236Z,59.32
2024-05-09T19:46:59.416Z,59.76
2024-05-09T19:49:36.780Z,59.58
2024-05-09T19:52:08.259Z,59.92
2024-05-09T19:54:51.610Z,59.64
2024-05-09T19:57:25.710Z,59.87
2024-05-09T20:00:12.050Z,60.26
2024-05-09T20:02:57.428Z,60.48
2024-05-09T20:17:17.915Z,61.26
2024-05-09T20:19:27.237Z,61.10
2024-05-09T20:21:54.560Z,61.17
2024-05-09T20:28:25.002Z,61.67
2024-05-09T20:45:36.660Z,62.28
2024-05-09T20:48:12.957Z,61.87
2024-05-09T20:50:53.286Z,61.72
2024-05-09T20:54:14.948Z,62.60
2024-05-09T20:56:51.945Z,62.58
2024-05-09T20:59:21.248Z,62.89
2024-05-09T21:01:56.412Z,62.38
2024-05-09T21:04:23.827Z,62.91
2024-05-09T21:06:57.813Z,63.18
2024-05-09T21:09:31.622Z,63.30
2024-05-09T21:12:00.935Z,63.02
2024-05-09T21:14:30.353Z,63.41
2024-05-09T21:16:59.738Z,63.60
2024-05-09T21:22:58.198Z,64.14
2024-05-09T21:25:27.501Z,64.20
2024-05-09T21:28:05.492Z,64.21
2024-05-09T21:30:47.748Z,64.13
2024-05-09T21:33:19.285Z,64.56
2024-05-09T21:35:46.691Z,64.57
2024-05-09T21:38:16.996Z,64.29
2024-05-09T21:40:45.917Z,65.02
2024-05-09T21:43:15.901Z,64.54
2024-05-09T21:45:48.481Z,64.28
2024-05-09T21:48:15.500Z,64.47
2024-05-09T21:50:48.598Z,64.79
2024-05-09T21:53:18.705Z,64.26
2024-05-09T21:55:46.843Z,65.63
2024-05-09T21:58:14.484Z,65.03
2024-05-09T22:00:42.346Z,63.45
2024-05-09T22:03:10.721Z,63.97
2024-05-09T22:05:39.786Z,62.79
2024-05-09T22:08:14.372Z,63.14
2024-05-09T22:10:41.562Z,61.60
2024-05-09T22:13:10.990Z,61.35
2024-05-09T22:15:40.402Z,60.27
2024-05-09T22:18:09.155Z,60.72
2024-05-09T22:20:44.815Z,60.94
2024-05-09T22:23:16.025Z,59.97
2024-05-09T22:25:43.026Z,59.87
2024-05-09T22:28:19.215Z,59.26
2024-05-09T22:30:47.160Z,59.94
2024-05-09T22:33:17.110Z,60.44
2024-05-09T22:35:44.119Z,61.05
2024-05-09T22:38:15.392Z,60.49
2024-05-09T22:40:49.198Z,60.99
2024-05-09T22:43:26.158Z,63.08
2024-05-09T22:45:59.436Z,66.12
2024-05-09T22:48:26.989Z,66.48
2024-05-09T22:50:56.959Z,67.22
2024-05-09T22:53:25.302Z,67.62
2024-05-09T22:55:53.667Z,67.65
2024-05-09T22:58:21.281Z,67.10
2024-05-09T23:11:12.386Z,66.38
2024-05-09T23:13:39.923Z,67.29
2024-05-09T23:16:25.618Z,65.50
2024-05-09T23:18:53.136Z,65.19
2024-05-09T23:21:20.515Z,63.79
2024-05-09T23:23:47.781Z,64.00
2024-05-09T23:29:02.572Z,65.61
2024-05-09T23:31:30.213Z,65.18
2024-05-09T23:34:00.285Z,64.96
2024-05-09T23:36:28.064Z,64.99
2024-05-09T23:38:55.399Z,63.96
2024-05-09T23:41:25.568Z,62.89
2024-05-09T23:43:55.551Z,63.79
2024-05-09T23:49:12.520Z,64.92
2024-05-09T23:51:39.935Z,67.03
2024-05-09T23:54:07.258Z,66.55
2024-05-09T23:56:34.506Z,66.99
2024-05-09T23:59:04.785Z,67.09
